createdAt,value
2017-08-02T00:00:39.638Z,1013.55
2017-08-02T00:01:48.557Z,1013.55
2017-08-02T00:02:57.475Z,1013.55
2017-08-02T00:04:06.716Z,1013.54
2017-08-02T00:05:15.654Z,1013.56
2017-08-02T00:06:24.578Z,1013.56
2017-08-02T00:07:33.500Z,1013.56
2017-08-02T00:08:42.423Z,1013.6
2017-08-02T00:09:51.686Z,1013.59
2017-08-02T00:11:00.607Z,1013.55
2017-08-02T00:12:09.525Z,1013.48
2017-08-02T00:13:18.450Z,1013.43
2017-08-02T00:14:27.699Z,1013.46
2017-08-02T00:15:36.615Z,1013.45
2017-08-02T00:16:45.538Z,1013.51
2017-08-02T00:17:54.459Z,1013.52
2017-08-02T00:19:03.385Z,1013.53
2017-08-02T00:20:12.324Z,1013.51
2017-08-02T00:21:21.264Z,1013.44
2017-08-02T00:22:30.506Z,1013.42
2017-08-02T00:23:39.431Z,1013.4
2017-08-02T00:24:48.355Z,1013.45
2017-08-02T00:25:57.277Z,1013.51
2017-08-02T00:27:06.197Z,1013.54
2017-08-02T00:28:15.118Z,1013.59
2017-08-02T00:29:24.036Z,1013.55
2017-08-02T00:30:32.964Z,1013.53
2017-08-02T00:31:42.215Z,1013.51
2017-08-02T00:32:51.139Z,1013.49
2017-08-02T00:34:00.058Z,1013.51
2017-08-02T00:35:08.984Z,1013.54
2017-08-02T00:36:17.905Z,1013.58
2017-08-02T00:37:26.826Z,1013.59
2017-08-02T00:38:35.754Z,1013.57
2017-08-02T00:39:44.671Z,1013.59
2017-08-02T00:40:53.607Z,1013.59
2017-08-02T00:42:02.527Z,1013.55
2017-08-02T00:43:12.095Z,1013.55
2017-08-02T00:44:21.016Z,1013.51
2017-08-02T00:45:29.957Z,1013.52
2017-08-02T00:46:38.892Z,1013.51
2017-08-02T00:47:47.815Z,1013.53
2017-08-02T00:48:57.058Z,1013.51
2017-08-02T00:50:06.298Z,1013.51
2017-08-02T00:51:15.217Z,1013.51
2017-08-02T00:52:24.136Z,1013.5
2017-08-02T00:53:33.059Z,1013.49
2017-08-02T00:54:42.298Z,1013.46
2017-08-02T00:55:51.214Z,1013.41
2017-08-02T00:57:00.462Z,1013.36
2017-08-02T00:58:09.382Z,1013.37
2017-08-02T00:59:18.301Z,1013.35
2017-08-02T01:00:27.223Z,1013.34
2017-08-02T01:01:36.148Z,1013.33
2017-08-02T01:02:45.390Z,1013.35
2017-08-02T01:03:54.309Z,1013.36
2017-08-02T01:05:03.233Z,1013.35
2017-08-02T01:06:12.151Z,1013.34
2017-08-02T01:07:21.072Z,1013.36
2017-08-02T01:08:29.992Z,1013.29
2017-08-02T01:09:38.910Z,1013.27
2017-08-02T01:10:47.841Z,1013.25
2017-08-02T01:11:56.769Z,1013.31
2017-08-02T01:13:05.694Z,1013.31
2017-08-02T01:14:14.618Z,1013.32
2017-08-02T01:15:23.556Z,1013.35
2017-08-02T01:16:32.482Z,1013.34
2017-08-02T01:17:41.408Z,1013.4
2017-08-02T01:18:50.326Z,1013.45
2017-08-02T01:19:59.244Z,1013.47
2017-08-02T01:21:08.162Z,1013.44
2017-08-02T01:22:17.084Z,1013.45
2017-08-02T01:23:26.008Z,1013.45
2017-08-02T01:24:34.933Z,1013.44
2017-08-02T01:25:44.185Z,1013.44
2017-08-02T01:26:53.111Z,1013.49
2017-08-02T01:28:02.376Z,1013.55
2017-08-02T01:29:11.299Z,1013.51
2017-08-02T01:30:20.219Z,1013.5
2017-08-02T01:31:29.144Z,1013.48
2017-08-02T01:32:38.069Z,1013.49
2017-08-02T01:33:46.989Z,1013.52
2017-08-02T01:34:55.906Z,1013.57
2017-08-02T01:36:04.835Z,1013.6
2017-08-02T01:37:13.757Z,1013.62
2017-08-02T01:38:22.685Z,1013.63
2017-08-02T01:39:31.602Z,1013.6
2017-08-02T01:40:40.530Z,1013.59
2017-08-02T01:41:49.446Z,1013.56
2017-08-02T01:42:58.363Z,1013.54
2017-08-02T01:44:07.284Z,1013.53
2017-08-02T01:45:16.212Z,1013.53
2017-08-02T01:46:25.130Z,1013.55
2017-08-02T01:47:34.058Z,1013.54
2017-08-02T01:48:42.976Z,1013.53
2017-08-02T01:49:51.905Z,1013.56
2017-08-02T01:51:00.834Z,1013.57
2017-08-02T01:52:09.757Z,1013.58
2017-08-02T01:53:19.001Z,1013.58
2017-08-02T01:54:27.924Z,1013.59
2017-08-02T01:55:36.848Z,1013.58
2017-08-02T01:56:45.770Z,1013.61
2017-08-02T01:57:55.016Z,1013.58
2017-08-02T01:59:03.938Z,1013.61
2017-08-02T02:00:13.176Z,1013.62
2017-08-02T02:01:22.098Z,1013.69
2017-08-02T02:02:31.015Z,1013.68
2017-08-02T02:03:40.253Z,1013.7
2017-08-02T02:04:49.178Z,1013.69
2017-08-02T02:05:58.098Z,1013.7
2017-08-02T02:07:07.016Z,1013.68
2017-08-02T02:08:15.934Z,1013.73
2017-08-02T02:09:24.850Z,1013.74
2017-08-02T02:10:33.769Z,1013.76
2017-08-02T02:11:43.021Z,1013.77
2017-08-02T02:12:51.943Z,1013.78
2017-08-02T02:14:00.859Z,1013.8
2017-08-02T02:15:09.776Z,1013.77
2017-08-02T02:16:18.694Z,1013.81
2017-08-02T02:17:28.281Z,1013.81
2017-08-02T02:18:37.204Z,1013.79
2017-08-02T02:19:46.128Z,1013.82
2017-08-02T02:20:55.367Z,1013.84
2017-08-02T02:22:04.297Z,1013.82
2017-08-02T02:23:13.219Z,1013.86
2017-08-02T02:24:22.133Z,1013.82
2017-08-02T02:25:31.053Z,1013.84
2017-08-02T02:26:40.300Z,1013.87
2017-08-02T02:27:49.239Z,1013.85
2017-08-02T02:28:58.163Z,1013.86
2017-08-02T02:30:07.086Z,1013.85
2017-08-02T02:31:16.023Z,1013.84
2017-08-02T02:32:24.950Z,1013.85
2017-08-02T02:33:33.882Z,1013.8
2017-08-02T02:34:43.122Z,1013.81
2017-08-02T02:35:52.046Z,1013.86
2017-08-02T02:37:00.974Z,1013.84
2017-08-02T02:38:09.891Z,1013.85
2017-08-02T02:39:19.141Z,1013.88
2017-08-02T02:40:28.061Z,1013.85
2017-08-02T02:41:36.994Z,1013.83
2017-08-02T02:42:45.899Z,1013.81
2017-08-02T02:43:54.828Z,1013.81
2017-08-02T02:45:04.073Z,1013.86
2017-08-02T02:46:12.982Z,1013.89
2017-08-02T02:47:21.889Z,1013.92
2017-08-02T02:48:30.797Z,1013.95
2017-08-02T02:49:40.030Z,1013.99
2017-08-02T02:50:48.937Z,1013.94
2017-08-02T02:51:57.871Z,1013.95
2017-08-02T02:53:07.112Z,1013.92
2017-08-02T02:54:16.016Z,1013.93
2017-08-02T02:55:25.566Z,1013.92
2017-08-02T02:56:34.465Z,1013.93
2017-08-02T02:57:43.380Z,1013.96
2017-08-02T02:58:52.289Z,1013.97
2017-08-02T03:00:01.524Z,1013.97
2017-08-02T03:01:10.429Z,1013.97
2017-08-02T03:02:19.334Z,1014
2017-08-02T03:03:28.234Z,1014.01
2017-08-02T03:04:37.142Z,1014.05
2017-08-02T03:05:46.050Z,1014.05
2017-08-02T03:06:54.952Z,1014.04
2017-08-02T03:08:03.855Z,1014.07
2017-08-02T03:09:12.768Z,1014.08
2017-08-02T03:10:21.673Z,1014.14
2017-08-02T03:11:30.575Z,1014.08
2017-08-02T03:12:39.482Z,1014.07
2017-08-02T03:13:48.380Z,1014.14
2017-08-02T03:14:57.296Z,1014.08
2017-08-02T03:16:06.198Z,1014.11
2017-08-02T03:17:15.431Z,1014.13
2017-08-02T03:18:24.333Z,1014.13
2017-08-02T03:19:33.243Z,1014.1
2017-08-02T03:20:42.148Z,1014.12
2017-08-02T03:21:51.047Z,1014.09
2017-08-02T03:22:59.948Z,1014.11
2017-08-02T03:24:09.174Z,1014.11
2017-08-02T03:25:18.086Z,1014.11
2017-08-02T03:26:26.986Z,1014.13
2017-08-02T03:27:35.902Z,1014.1
2017-08-02T03:28:44.807Z,1014.16
2017-08-02T03:29:53.702Z,1014.13
2017-08-02T03:31:02.613Z,1014.12
2017-08-02T03:32:11.522Z,1014.12
2017-08-02T03:33:20.759Z,1014.09
2017-08-02T03:34:29.662Z,1014.08
2017-08-02T03:35:38.569Z,1014.09
2017-08-02T03:36:47.474Z,1014.07
2017-08-02T03:37:56.381Z,1014.09
2017-08-02T03:39:05.282Z,1014.1
2017-08-02T03:40:14.188Z,1014.13
2017-08-02T03:41:23.093Z,1014.16
2017-08-02T03:42:31.996Z,1014.21
2017-08-02T03:43:40.904Z,1014.26
2017-08-02T03:44:49.808Z,1014.28
2017-08-02T03:45:58.713Z,1014.29
2017-08-02T03:47:07.622Z,1014.32
2017-08-02T03:48:16.531Z,1014.33
2017-08-02T03:49:25.431Z,1014.39
2017-08-02T03:50:34.341Z,1014.39
2017-08-02T03:51:43.246Z,1014.39
2017-08-02T03:52:52.160Z,1014.41
2017-08-02T03:54:01.066Z,1014.44
2017-08-02T03:55:09.979Z,1014.45
2017-08-02T03:56:18.884Z,1014.47
2017-08-02T03:57:27.787Z,1014.52
2017-08-02T03:58:36.700Z,1014.53
2017-08-02T03:59:45.609Z,1014.56
2017-08-02T04:00:54.515Z,1014.58
2017-08-02T04:02:03.736Z,1014.6
2017-08-02T04:03:12.647Z,1014.65
2017-08-02T04:04:21.548Z,1014.63
2017-08-02T04:05:30.455Z,1014.62
2017-08-02T04:06:39.687Z,1014.59
2017-08-02T04:07:48.594Z,1014.54
2017-08-02T04:08:57.500Z,1014.5
2017-08-02T04:10:06.524Z,1014.53
2017-08-02T04:11:15.758Z,1014.57
2017-08-02T04:12:24.673Z,1014.59
2017-08-02T04:13:33.588Z,1014.56
2017-08-02T04:14:42.492Z,1014.63
2017-08-02T04:15:51.397Z,1014.64
2017-08-02T04:17:00.304Z,1014.68
2017-08-02T04:18:09.204Z,1014.67
2017-08-02T04:19:18.106Z,1014.69
2017-08-02T04:20:27.022Z,1014.68
2017-08-02T04:21:35.926Z,1014.68
2017-08-02T04:22:44.837Z,1014.7
2017-08-02T04:23:54.079Z,1014.77
2017-08-02T04:25:02.980Z,1014.77
2017-08-02T04:26:11.905Z,1014.8
2017-08-02T04:27:20.811Z,1014.84
2017-08-02T04:28:29.716Z,1014.83
2017-08-02T04:29:38.619Z,1014.79
2017-08-02T04:30:47.534Z,1014.76
2017-08-02T04:31:56.438Z,1014.79
2017-08-02T04:33:05.384Z,1014.82
2017-08-02T04:34:14.619Z,1014.82
2017-08-02T04:35:23.839Z,1014.84
2017-08-02T04:36:33.066Z,1014.82
2017-08-02T04:37:41.979Z,1014.83
2017-08-02T04:38:50.884Z,1014.86
2017-08-02T04:39:59.786Z,1014.85
2017-08-02T04:41:08.695Z,1014.88
2017-08-02T04:42:17.596Z,1014.87
2017-08-02T04:43:26.506Z,1014.83
2017-08-02T04:44:35.406Z,1014.83
2017-08-02T04:45:44.318Z,1014.84
2017-08-02T04:46:53.223Z,1014.81
2017-08-02T04:48:02.458Z,1014.85
2017-08-02T04:49:11.363Z,1014.83
2017-08-02T04:50:20.276Z,1014.78
2017-08-02T04:51:29.499Z,1014.78
2017-08-02T04:52:38.393Z,1014.7
2017-08-02T04:53:47.304Z,1014.67
2017-08-02T04:54:56.210Z,1014.61
2017-08-02T04:56:05.113Z,1014.6
2017-08-02T04:57:14.010Z,1014.58
2017-08-02T04:58:22.923Z,1014.63
2017-08-02T04:59:31.831Z,1014.6
2017-08-02T05:00:41.060Z,1014.59
2017-08-02T05:01:49.963Z,1014.6
2017-08-02T05:02:58.867Z,1014.64
2017-08-02T05:04:07.765Z,1014.64
2017-08-02T05:05:16.673Z,1014.65
2017-08-02T05:06:25.572Z,1014.71
2017-08-02T05:07:34.476Z,1014.7
2017-08-02T05:08:43.727Z,1014.73
2017-08-02T05:09:52.637Z,1014.73
2017-08-02T05:11:01.540Z,1014.77
2017-08-02T05:12:10.447Z,1014.78
2017-08-02T05:13:19.348Z,1014.78
2017-08-02T05:14:28.254Z,1014.81
2017-08-02T05:15:37.488Z,1014.82
2017-08-02T05:16:46.406Z,1014.86
2017-08-02T05:17:55.323Z,1014.82
2017-08-02T05:19:04.224Z,1014.86
2017-08-02T05:20:13.133Z,1014.87
2017-08-02T05:21:22.034Z,1014.85
2017-08-02T05:22:30.944Z,1014.87
2017-08-02T05:23:39.851Z,1014.89
2017-08-02T05:24:48.753Z,1014.91
2017-08-02T05:25:57.985Z,1014.93
2017-08-02T05:27:06.897Z,1014.94
2017-08-02T05:28:15.811Z,1014.92
2017-08-02T05:29:24.721Z,1014.93
2017-08-02T05:30:33.631Z,1014.94
2017-08-02T05:31:42.536Z,1014.94
2017-08-02T05:32:51.441Z,1014.95
2017-08-02T05:34:00.359Z,1014.86
2017-08-02T05:35:09.624Z,1014.88
2017-08-02T05:36:19.177Z,1014.9
2017-08-02T05:37:28.078Z,1014.92
2017-08-02T05:38:36.988Z,1014.94
2017-08-02T05:39:45.889Z,1014.96
2017-08-02T05:40:54.794Z,1014.97
2017-08-02T05:42:03.694Z,1014.92
2017-08-02T05:43:12.606Z,1014.88
2017-08-02T05:44:21.504Z,1014.82
2017-08-02T05:45:30.734Z,1014.82
2017-08-02T05:46:39.635Z,1014.82
2017-08-02T05:47:48.865Z,1014.8
2017-08-02T05:48:58.105Z,1014.76
2017-08-02T05:50:07.014Z,1014.77
2017-08-02T05:51:15.922Z,1014.82
2017-08-02T05:52:24.837Z,1014.85
2017-08-02T05:53:33.745Z,1014.86
2017-08-02T05:54:42.649Z,1014.87
2017-08-02T05:55:51.565Z,1014.89
2017-08-02T05:57:00.467Z,1014.89
2017-08-02T05:58:09.380Z,1014.88
2017-08-02T05:59:18.614Z,1014.86
2017-08-02T06:00:27.519Z,1014.81
2017-08-02T06:01:36.420Z,1014.82
2017-08-02T06:02:45.326Z,1014.84
2017-08-02T06:03:54.227Z,1014.85
2017-08-02T06:05:03.134Z,1014.87
2017-08-02T06:06:12.039Z,1014.85
2017-08-02T06:07:20.947Z,1014.93
2017-08-02T06:08:29.883Z,1014.92
2017-08-02T06:09:39.129Z,1014.93
2017-08-02T06:10:48.039Z,1014.92
2017-08-02T06:11:57.267Z,1014.91
2017-08-02T06:13:06.176Z,1014.96
2017-08-02T06:14:15.078Z,1015.02
2017-08-02T06:15:23.981Z,1015.01
2017-08-02T06:16:33.201Z,1014.98
2017-08-02T06:17:42.111Z,1014.98
2017-08-02T06:18:51.014Z,1014.96
2017-08-02T06:19:59.927Z,1014.99
2017-08-02T06:21:08.837Z,1014.99
2017-08-02T06:22:17.747Z,1015.05
2017-08-02T06:23:26.652Z,1015.04
2017-08-02T06:24:35.887Z,1015.08
2017-08-02T06:25:44.796Z,1015.09
2017-08-02T06:26:54.030Z,1015.1
2017-08-02T06:28:02.934Z,1015.15
2017-08-02T06:29:12.164Z,1015.16
2017-08-02T06:30:21.065Z,1015.14
2017-08-02T06:31:29.967Z,1015.14
2017-08-02T06:32:38.869Z,1015.14
2017-08-02T06:33:47.778Z,1015.23
2017-08-02T06:34:56.685Z,1015.24
2017-08-02T06:36:05.591Z,1015.23
2017-08-02T06:37:14.502Z,1015.18
2017-08-02T06:38:23.415Z,1015.2
2017-08-02T06:39:32.335Z,1015.21
2017-08-02T06:40:41.268Z,1015.2
2017-08-02T06:41:50.160Z,1015.18
2017-08-02T06:42:59.070Z,1015.21
2017-08-02T06:44:07.972Z,1015.2
2017-08-02T06:45:16.880Z,1015.23
2017-08-02T06:46:25.789Z,1015.3
2017-08-02T06:47:34.692Z,1015.31
2017-08-02T06:48:43.597Z,1015.35
2017-08-02T06:49:52.499Z,1015.33
2017-08-02T06:51:01.402Z,1015.4
2017-08-02T06:52:10.305Z,1015.42
2017-08-02T06:53:19.217Z,1015.44
2017-08-02T06:54:28.152Z,1015.47
2017-08-02T06:55:37.061Z,1015.42
2017-08-02T06:56:45.961Z,1015.39
2017-08-02T06:57:55.186Z,1015.41
2017-08-02T06:59:04.098Z,1015.44
2017-08-02T07:00:13.342Z,1015.47
2017-08-02T07:01:22.247Z,1015.5
2017-08-02T07:02:31.151Z,1015.58
2017-08-02T07:03:40.050Z,1015.59
2017-08-02T07:04:48.961Z,1015.62
2017-08-02T07:05:57.880Z,1015.62
2017-08-02T07:07:06.798Z,1015.6
2017-08-02T07:08:15.699Z,1015.62
2017-08-02T07:09:24.611Z,1015.62
2017-08-02T07:10:33.843Z,1015.56
2017-08-02T07:11:42.744Z,1015.54
2017-08-02T07:12:51.655Z,1015.53
2017-08-02T07:14:00.884Z,1015.48
2017-08-02T07:15:09.795Z,1015.45
2017-08-02T07:16:18.704Z,1015.39
2017-08-02T07:17:27.616Z,1015.42
2017-08-02T07:18:36.525Z,1015.48
2017-08-02T07:19:45.430Z,1015.48
2017-08-02T07:20:54.334Z,1015.47
2017-08-02T07:22:03.241Z,1015.45
2017-08-02T07:23:12.149Z,1015.45
2017-08-02T07:24:21.047Z,1015.44
2017-08-02T07:25:29.950Z,1015.49
2017-08-02T07:26:38.862Z,1015.49
2017-08-02T07:27:47.768Z,1015.49
2017-08-02T07:28:56.672Z,1015.48
2017-08-02T07:30:05.583Z,1015.53
2017-08-02T07:31:14.489Z,1015.5
2017-08-02T07:32:23.717Z,1015.46
2017-08-02T07:33:32.621Z,1015.43
2017-08-02T07:34:41.525Z,1015.4
2017-08-02T07:35:50.439Z,1015.36
2017-08-02T07:36:59.351Z,1015.41
2017-08-02T07:38:08.268Z,1015.43
2017-08-02T07:39:17.527Z,1015.38
2017-08-02T07:40:26.431Z,1015.44
2017-08-02T07:41:35.335Z,1015.44
2017-08-02T07:42:44.246Z,1015.47
2017-08-02T07:43:53.793Z,1015.48
2017-08-02T07:45:02.697Z,1015.53
2017-08-02T07:46:11.597Z,1015.56
2017-08-02T07:47:20.503Z,1015.61
2017-08-02T07:48:29.403Z,1015.59
2017-08-02T07:49:38.314Z,1015.7
2017-08-02T07:50:47.532Z,1015.72
2017-08-02T07:51:56.439Z,1015.77
2017-08-02T07:53:05.349Z,1015.74
2017-08-02T07:54:14.257Z,1015.79
2017-08-02T07:55:23.175Z,1015.79
2017-08-02T07:56:32.078Z,1015.79
2017-08-02T07:57:40.995Z,1015.78
2017-08-02T07:58:49.907Z,1015.81
2017-08-02T07:59:58.816Z,1015.79
2017-08-02T08:01:08.043Z,1015.8
2017-08-02T08:02:16.946Z,1015.74
2017-08-02T08:03:25.853Z,1015.7
2017-08-02T08:04:34.763Z,1015.71
2017-08-02T08:05:43.661Z,1015.72
2017-08-02T08:06:52.577Z,1015.75
2017-08-02T08:08:01.497Z,1015.8
2017-08-02T08:09:10.407Z,1015.86
2017-08-02T08:10:19.320Z,1015.92
2017-08-02T08:11:28.233Z,1015.98
2017-08-02T08:12:37.451Z,1015.95
2017-08-02T08:13:46.367Z,1015.97
2017-08-02T08:14:55.278Z,1015.99
2017-08-02T08:16:04.186Z,1016
2017-08-02T08:17:13.092Z,1015.94
2017-08-02T08:18:21.996Z,1015.95
2017-08-02T08:19:30.905Z,1016
2017-08-02T08:20:39.806Z,1016.03
2017-08-02T08:21:48.709Z,1016.03
2017-08-02T08:22:57.620Z,1016.03
2017-08-02T08:24:06.839Z,1016.06
2017-08-02T08:25:15.755Z,1016.04
2017-08-02T08:26:24.657Z,1016.03
2017-08-02T08:27:33.560Z,1016.08
2017-08-02T08:28:42.470Z,1016.08
2017-08-02T08:29:51.385Z,1016.1
2017-08-02T08:31:00.952Z,1016.11
2017-08-02T08:32:09.857Z,1016.14
2017-08-02T08:33:18.759Z,1016.16
2017-08-02T08:34:27.664Z,1016.18
2017-08-02T08:35:36.572Z,1016.2
2017-08-02T08:36:45.477Z,1016.19
2017-08-02T08:37:54.383Z,1016.15
2017-08-02T08:39:03.299Z,1016.17
2017-08-02T08:40:12.205Z,1016.15
2017-08-02T08:41:21.107Z,1016.2
2017-08-02T08:42:30.031Z,1016.24
2017-08-02T08:43:38.936Z,1016.27
2017-08-02T08:44:47.840Z,1016.3
2017-08-02T08:45:56.747Z,1016.29
2017-08-02T08:47:05.651Z,1016.27
2017-08-02T08:48:14.557Z,1016.27
2017-08-02T08:49:23.801Z,1016.3
2017-08-02T08:50:33.028Z,1016.27
2017-08-02T08:51:41.930Z,1016.27
2017-08-02T08:52:50.833Z,1016.26
2017-08-02T08:53:59.744Z,1016.26
2017-08-02T08:55:08.651Z,1016.26
2017-08-02T08:56:17.554Z,1016.24
2017-08-02T08:57:26.467Z,1016.23
2017-08-02T08:58:35.371Z,1016.21
2017-08-02T08:59:44.601Z,1016.25
2017-08-02T09:00:53.504Z,1016.27
2017-08-02T09:02:02.416Z,1016.2
2017-08-02T09:03:11.648Z,1016.19
2017-08-02T09:04:20.581Z,1016.18
2017-08-02T09:05:29.816Z,1016.19
2017-08-02T09:06:38.722Z,1016.19
2017-08-02T09:07:47.631Z,1016.25
2017-08-02T09:08:56.857Z,1016.3
2017-08-02T09:10:05.767Z,1016.35
2017-08-02T09:11:14.686Z,1016.33
2017-08-02T09:12:23.586Z,1016.37
2017-08-02T09:13:32.493Z,1016.31
2017-08-02T09:14:41.404Z,1016.27
2017-08-02T09:15:50.305Z,1016.3
2017-08-02T09:16:59.215Z,1016.32
2017-08-02T09:18:08.124Z,1016.39
2017-08-02T09:19:17.041Z,1016.37
2017-08-02T09:20:25.946Z,1016.39
2017-08-02T09:21:34.852Z,1016.43
2017-08-02T09:22:44.108Z,1016.39
2017-08-02T09:23:53.035Z,1016.44
2017-08-02T09:25:01.940Z,1016.48
2017-08-02T09:26:11.180Z,1016.39
2017-08-02T09:27:20.085Z,1016.41
2017-08-02T09:28:28.997Z,1016.38
2017-08-02T09:29:37.905Z,1016.41
2017-08-02T09:30:46.808Z,1016.43
2017-08-02T09:31:55.718Z,1016.44
2017-08-02T09:33:04.653Z,1016.47
2017-08-02T09:34:13.568Z,1016.46
2017-08-02T09:35:22.471Z,1016.46
2017-08-02T09:36:31.374Z,1016.45
2017-08-02T09:37:40.297Z,1016.44
2017-08-02T09:38:49.209Z,1016.44
2017-08-02T09:39:58.121Z,1016.47
2017-08-02T09:41:07.033Z,1016.49
2017-08-02T09:42:15.947Z,1016.44
2017-08-02T09:43:24.843Z,1016.47
2017-08-02T09:44:33.753Z,1016.46
2017-08-02T09:45:42.653Z,1016.48
2017-08-02T09:46:51.566Z,1016.48
2017-08-02T09:48:00.475Z,1016.43
2017-08-02T09:49:09.380Z,1016.41
2017-08-02T09:50:18.289Z,1016.35
2017-08-02T09:51:27.202Z,1016.31
2017-08-02T09:52:36.104Z,1016.34
2017-08-02T09:53:45.014Z,1016.38
2017-08-02T09:54:54.262Z,1016.4
2017-08-02T09:56:03.182Z,1016.43
2017-08-02T09:57:12.093Z,1016.46
2017-08-02T09:58:20.995Z,1016.42
2017-08-02T09:59:29.907Z,1016.37
2017-08-02T10:00:38.814Z,1016.35
2017-08-02T10:01:47.726Z,1016.34
2017-08-02T10:02:56.635Z,1016.31
2017-08-02T10:04:05.552Z,1016.38
2017-08-02T10:05:14.461Z,1016.4
2017-08-02T10:06:23.358Z,1016.35
2017-08-02T10:07:32.261Z,1016.31
2017-08-02T10:08:41.172Z,1016.32
2017-08-02T10:09:50.084Z,1016.28
2017-08-02T10:10:59.012Z,1016.23
2017-08-02T10:12:07.920Z,1016.19
2017-08-02T10:13:16.825Z,1016.23
2017-08-02T10:14:25.736Z,1016.27
2017-08-02T10:15:34.980Z,1016.28
2017-08-02T10:16:43.885Z,1016.25
2017-08-02T10:17:53.110Z,1016.22
2017-08-02T10:19:02.338Z,1016.18
2017-08-02T10:20:11.275Z,1016.23
2017-08-02T10:21:20.492Z,1016.22
2017-08-02T10:22:29.418Z,1016.2
2017-08-02T10:23:38.321Z,1016.23
2017-08-02T10:24:47.224Z,1016.26
2017-08-02T10:25:56.126Z,1016.25
2017-08-02T10:27:05.355Z,1016.23
2017-08-02T10:28:14.259Z,1016.26
2017-08-02T10:29:23.169Z,1016.23
2017-08-02T10:30:32.074Z,1016.22
2017-08-02T10:31:40.978Z,1016.21
2017-08-02T10:32:49.902Z,1016.19
2017-08-02T10:33:58.818Z,1016.24
2017-08-02T10:35:07.726Z,1016.19
2017-08-02T10:36:16.649Z,1016.22
2017-08-02T10:37:25.556Z,1016.2
2017-08-02T10:38:34.462Z,1016.12
2017-08-02T10:39:43.373Z,1016.14
2017-08-02T10:40:52.279Z,1016.14
2017-08-02T10:42:01.190Z,1016.17
2017-08-02T10:43:10.424Z,1016.18
2017-08-02T10:44:19.352Z,1016.17
2017-08-02T10:45:28.258Z,1016.17
2017-08-02T10:46:37.168Z,1016.14
2017-08-02T10:47:46.075Z,1016.15
2017-08-02T10:48:54.981Z,1016.2
2017-08-02T10:50:03.887Z,1016.2
2017-08-02T10:51:12.792Z,1016.2
2017-08-02T10:52:21.696Z,1016.18
2017-08-02T10:53:30.604Z,1016.19
2017-08-02T10:54:39.520Z,1016.18
2017-08-02T10:55:48.422Z,1016.19
2017-08-02T10:56:57.331Z,1016.17
2017-08-02T10:58:06.240Z,1016.2
2017-08-02T10:59:15.156Z,1016.18
2017-08-02T11:00:24.063Z,1016.21
2017-08-02T11:01:32.972Z,1016.23
2017-08-02T11:02:41.874Z,1016.21
2017-08-02T11:03:50.775Z,1016.23
2017-08-02T11:04:59.688Z,1016.19
2017-08-02T11:06:08.919Z,1016.2
2017-08-02T11:07:17.828Z,1016.19
2017-08-02T11:08:26.741Z,1016.19
2017-08-02T11:09:35.985Z,1016.19
2017-08-02T11:10:45.208Z,1016.21
2017-08-02T11:11:54.116Z,1016.27
2017-08-02T11:13:03.028Z,1016.28
2017-08-02T11:14:11.939Z,1016.28
2017-08-02T11:15:20.838Z,1016.28
2017-08-02T11:16:29.746Z,1016.23
2017-08-02T11:17:38.659Z,1016.23
2017-08-02T11:18:47.892Z,1016.18
2017-08-02T11:19:56.798Z,1016.23
2017-08-02T11:21:05.701Z,1016.24
2017-08-02T11:22:14.608Z,1016.19
2017-08-02T11:23:23.555Z,1016.18
2017-08-02T11:24:32.466Z,1016.17
2017-08-02T11:25:41.370Z,1016.15
2017-08-02T11:26:50.273Z,1016.19
2017-08-02T11:27:59.186Z,1016.19
2017-08-02T11:29:08.090Z,1016.15
2017-08-02T11:30:17.008Z,1016.14
2017-08-02T11:31:25.910Z,1016.12
2017-08-02T11:32:34.816Z,1016.09
2017-08-02T11:33:43.722Z,1016.07
2017-08-02T11:34:52.632Z,1016.12
2017-08-02T11:36:01.532Z,1016.12
2017-08-02T11:37:10.443Z,1016.08
2017-08-02T11:38:19.349Z,1016.11
2017-08-02T11:39:28.257Z,1016.09
2017-08-02T11:40:37.488Z,1016.07
2017-08-02T11:41:46.390Z,1016.07
2017-08-02T11:42:55.309Z,1016.07
2017-08-02T11:44:04.222Z,1016.07
2017-08-02T11:45:13.455Z,1016.1
2017-08-02T11:46:22.353Z,1016.07
2017-08-02T11:47:31.258Z,1016.07
2017-08-02T11:48:40.169Z,1015.99
2017-08-02T11:49:49.080Z,1015.95
2017-08-02T11:50:57.986Z,1015.94
2017-08-02T11:52:06.898Z,1015.94
2017-08-02T11:53:16.129Z,1015.91
2017-08-02T11:54:25.042Z,1015.96
2017-08-02T11:55:33.948Z,1015.91
2017-08-02T11:56:42.857Z,1015.99
2017-08-02T11:57:51.763Z,1016.02
2017-08-02T11:59:00.673Z,1015.98
2017-08-02T12:00:10.226Z,1015.95
2017-08-02T12:01:19.138Z,1015.96
2017-08-02T12:02:28.049Z,1015.98
2017-08-02T12:03:36.955Z,1015.93
2017-08-02T12:04:45.858Z,1015.89
2017-08-02T12:05:54.765Z,1015.9
2017-08-02T12:07:03.705Z,1015.89
2017-08-02T12:08:12.612Z,1015.9
2017-08-02T12:09:21.520Z,1015.9
2017-08-02T12:10:30.425Z,1015.92
2017-08-02T12:11:39.332Z,1015.93
2017-08-02T12:12:48.240Z,1015.88
2017-08-02T12:13:57.149Z,1015.86
2017-08-02T12:15:06.061Z,1015.83
2017-08-02T12:16:14.970Z,1015.74
2017-08-02T12:17:23.883Z,1015.8
2017-08-02T12:18:32.792Z,1015.75
2017-08-02T12:19:42.029Z,1015.79
2017-08-02T12:20:50.931Z,1015.8
2017-08-02T12:21:59.831Z,1015.81
2017-08-02T12:23:09.069Z,1015.87
2017-08-02T12:24:18.298Z,1015.84
2017-08-02T12:25:27.214Z,1015.82
2017-08-02T12:26:36.125Z,1015.84
2017-08-02T12:27:45.034Z,1015.81
2017-08-02T12:28:53.934Z,1015.86
2017-08-02T12:30:02.853Z,1015.85
2017-08-02T12:31:11.786Z,1015.85
2017-08-02T12:32:20.690Z,1015.84
2017-08-02T12:33:29.596Z,1015.87
2017-08-02T12:34:38.505Z,1015.87
2017-08-02T12:35:47.407Z,1015.84
2017-08-02T12:36:56.315Z,1015.82
2017-08-02T12:38:05.223Z,1015.83
2017-08-02T12:39:14.146Z,1015.87
2017-08-02T12:40:23.050Z,1015.84
2017-08-02T12:41:31.955Z,1015.87
2017-08-02T12:42:40.865Z,1015.9
2017-08-02T12:43:49.769Z,1015.88
2017-08-02T12:44:58.676Z,1015.91
2017-08-02T12:46:07.899Z,1015.97
2017-08-02T12:47:17.145Z,1015.94
2017-08-02T12:48:26.059Z,1015.89
2017-08-02T12:49:34.967Z,1015.87
2017-08-02T12:50:43.876Z,1015.93
2017-08-02T12:51:52.788Z,1015.94
2017-08-02T12:53:01.690Z,1015.89
2017-08-02T12:54:10.598Z,1015.88
2017-08-02T12:55:19.510Z,1015.85
2017-08-02T12:56:28.414Z,1015.85
2017-08-02T12:57:37.322Z,1015.82
2017-08-02T12:58:46.547Z,1015.78
2017-08-02T12:59:55.458Z,1015.78
2017-08-02T13:01:04.366Z,1015.79
2017-08-02T13:02:13.925Z,1015.79
2017-08-02T13:03:22.832Z,1015.78
2017-08-02T13:04:31.742Z,1015.73
2017-08-02T13:05:40.647Z,1015.71
2017-08-02T13:06:49.552Z,1015.66
2017-08-02T13:07:58.452Z,1015.65
2017-08-02T13:09:07.378Z,1015.61
2017-08-02T13:10:16.930Z,1015.62
2017-08-02T13:11:25.866Z,1015.62
2017-08-02T13:12:35.100Z,1015.65
2017-08-02T13:13:44.006Z,1015.68
2017-08-02T13:14:53.241Z,1015.68
2017-08-02T13:16:02.468Z,1015.63
2017-08-02T13:17:11.370Z,1015.59
2017-08-02T13:18:20.284Z,1015.6
2017-08-02T13:19:29.192Z,1015.59
2017-08-02T13:20:38.100Z,1015.62
2017-08-02T13:21:47.003Z,1015.66
2017-08-02T13:22:55.914Z,1015.63
2017-08-02T13:24:04.817Z,1015.61
2017-08-02T13:25:13.730Z,1015.63
2017-08-02T13:26:22.665Z,1015.6
2017-08-02T13:27:31.898Z,1015.6
2017-08-02T13:28:40.803Z,1015.61
2017-08-02T13:29:49.709Z,1015.56
2017-08-02T13:30:58.612Z,1015.58
2017-08-02T13:32:07.524Z,1015.59
2017-08-02T13:33:16.432Z,1015.59
2017-08-02T13:34:25.353Z,1015.55
2017-08-02T13:35:34.263Z,1015.53
2017-08-02T13:36:43.164Z,1015.51
2017-08-02T13:37:52.073Z,1015.55
2017-08-02T13:39:00.986Z,1015.54
2017-08-02T13:40:09.892Z,1015.59
2017-08-02T13:41:18.798Z,1015.56
2017-08-02T13:42:27.716Z,1015.58
2017-08-02T13:43:36.942Z,1015.62
2017-08-02T13:44:45.857Z,1015.65
2017-08-02T13:45:54.764Z,1015.58
2017-08-02T13:47:03.774Z,1015.55
2017-08-02T13:48:12.998Z,1015.51
2017-08-02T13:49:21.916Z,1015.49
2017-08-02T13:50:31.154Z,1015.5
2017-08-02T13:51:40.069Z,1015.5
2017-08-02T13:52:49.294Z,1015.47
2017-08-02T13:53:58.206Z,1015.48
2017-08-02T13:55:07.440Z,1015.46
2017-08-02T13:56:16.341Z,1015.45
2017-08-02T13:57:25.251Z,1015.38